createdAt,value
2017-07-18T00:00:13.566Z,0
2017-07-18T00:01:23.934Z,0
2017-07-18T00:02:34.302Z,0
2017-07-18T00:03:44.376Z,0
2017-07-18T00:04:54.428Z,0
2017-07-18T00:06:04.917Z,0
2017-07-18T00:07:15.272Z,0
2017-07-18T00:08:25.718Z,0
2017-07-18T00:09:36.172Z,0
2017-07-18T00:10:46.548Z,0
2017-07-18T00:11:56.274Z,0
2017-07-18T00:13:06.334Z,0
2017-07-18T00:14:16.694Z,0
2017-07-18T00:15:26.738Z,0
2017-07-18T00:16:37.094Z,0
2017-07-18T00:17:47.508Z,0
2017-07-18T00:18:57.858Z,0
2017-07-18T00:20:08.206Z,0
2017-07-18T00:21:18.230Z,0
2017-07-18T00:22:28.577Z,0
2017-07-18T00:23:38.294Z,0
2017-07-18T00:24:48.349Z,0
2017-07-18T00:25:58.725Z,0
2017-07-18T00:27:09.116Z,0
2017-07-18T00:28:19.477Z,0
2017-07-18T00:29:29.875Z,0
2017-07-18T00:30:39.961Z,0
2017-07-18T00:31:50.300Z,0
2017-07-18T00:33:00.017Z,0
2017-07-18T00:34:10.389Z,0
2017-07-18T00:35:20.784Z,0
2017-07-18T00:36:30.837Z,0
2017-07-18T00:37:40.914Z,0
2017-07-18T00:38:51.273Z,0
2017-07-18T00:40:01.619Z,0
2017-07-18T00:41:12.043Z,0
2017-07-18T00:42:22.126Z,0
2017-07-18T00:43:32.483Z,0
2017-07-18T00:44:42.945Z,0
2017-07-18T00:45:53.017Z,0
2017-07-18T00:47:03.373Z,0
2017-07-18T00:48:13.739Z,0
2017-07-18T00:49:23.803Z,0
2017-07-18T00:50:34.157Z,0
2017-07-18T00:51:44.518Z,0
2017-07-18T00:52:54.912Z,0
2017-07-18T00:54:04.954Z,0
2017-07-18T00:55:15.301Z,0
2017-07-18T00:56:25.038Z,0
2017-07-18T00:57:35.432Z,0
2017-07-18T00:58:45.861Z,0
2017-07-18T00:59:56.201Z,0
2017-07-18T01:01:06.571Z,0
2017-07-18T01:02:16.611Z,0
2017-07-18T01:03:26.967Z,0
2017-07-18T01:04:37.370Z,0
2017-07-18T01:05:47.416Z,0
2017-07-18T01:06:57.461Z,0
2017-07-18T01:08:07.511Z,0
2017-07-18T01:09:17.850Z,0
2017-07-18T01:10:28.216Z,0
2017-07-18T01:11:38.564Z,0
2017-07-18T01:12:48.632Z,0
2017-07-18T01:13:58.974Z,0
2017-07-18T01:15:09.311Z,0
2017-07-18T01:16:19.350Z,0
2017-07-18T01:17:29.697Z,0
2017-07-18T01:18:40.047Z,0
2017-07-18T01:19:50.403Z,0
2017-07-18T01:21:00.450Z,0
2017-07-18T01:22:10.816Z,0
2017-07-18T01:23:20.857Z,0
2017-07-18T01:24:30.919Z,0
2017-07-18T01:25:41.268Z,0
2017-07-18T01:26:50.990Z,0
2017-07-18T01:28:01.389Z,0
2017-07-18T01:29:11.730Z,0
2017-07-18T01:30:22.099Z,0
2017-07-18T01:31:32.135Z,0
2017-07-18T01:32:42.492Z,0
2017-07-18T01:33:52.849Z,0
2017-07-18T01:35:03.199Z,0
2017-07-18T01:36:13.551Z,0
2017-07-18T01:37:23.899Z,0
2017-07-18T01:38:33.948Z,0
2017-07-18T01:39:44.344Z,0
2017-07-18T01:40:54.717Z,0
2017-07-18T01:42:05.067Z,0
2017-07-18T01:43:15.421Z,0
2017-07-18T01:44:25.767Z,0
2017-07-18T01:45:36.161Z,0
2017-07-18T01:46:46.220Z,0
2017-07-18T01:47:56.578Z,0
2017-07-18T01:49:06.913Z,0
2017-07-18T01:50:17.288Z,0
2017-07-18T01:51:27.683Z,0
2017-07-18T01:52:38.031Z,0
2017-07-18T01:53:48.371Z,0
2017-07-18T01:54:58.402Z,0
2017-07-18T01:56:08.753Z,0
2017-07-18T01:57:19.166Z,0
2017-07-18T01:58:29.515Z,0
2017-07-18T01:59:39.849Z,0
2017-07-18T02:00:50.235Z,0
2017-07-18T02:02:00.576Z,0
2017-07-18T02:03:10.674Z,0
2017-07-18T02:04:21.014Z,0
2017-07-18T02:05:31.052Z,0
2017-07-18T02:06:41.404Z,0
2017-07-18T02:07:51.439Z,0
2017-07-18T02:09:01.790Z,0
2017-07-18T02:10:11.842Z,0
2017-07-18T02:11:22.187Z,0
2017-07-18T02:12:32.582Z,0
2017-07-18T02:13:42.629Z,0
2017-07-18T02:14:53.055Z,0
2017-07-18T02:16:03.404Z,0
2017-07-18T02:17:13.766Z,0
2017-07-18T02:18:24.137Z,0
2017-07-18T02:19:34.507Z,0
2017-07-18T02:20:44.565Z,0
2017-07-18T02:21:54.928Z,0
2017-07-18T02:23:05.271Z,0
2017-07-18T02:24:15.618Z,0
2017-07-18T02:25:25.660Z,0
2017-07-18T02:26:35.748Z,0
2017-07-18T02:27:46.085Z,0
2017-07-18T02:28:56.383Z,0
2017-07-18T02:30:06.057Z,0
2017-07-18T02:31:16.341Z,0
2017-07-18T02:32:26.331Z,0
2017-07-18T02:33:36.631Z,0
2017-07-18T02:34:46.931Z,0
2017-07-18T02:35:57.219Z,0
2017-07-18T02:37:07.510Z,0
2017-07-18T02:38:18.039Z,0
2017-07-18T02:39:28.308Z,0
2017-07-18T02:40:38.608Z,0
2017-07-18T02:41:48.582Z,0
2017-07-18T02:42:58.880Z,0
2017-07-18T02:44:09.225Z,0
2017-07-18T02:45:19.202Z,0
2017-07-18T02:46:29.502Z,0
2017-07-18T02:47:39.500Z,0
2017-07-18T02:48:49.507Z,0
2017-07-18T02:49:59.535Z,0
2017-07-18T02:51:09.825Z,0
2017-07-18T02:52:20.137Z,0
2017-07-18T02:53:30.118Z,0
2017-07-18T02:54:40.412Z,0
2017-07-18T02:55:50.691Z,0
2017-07-18T02:57:00.969Z,0
2017-07-18T02:58:11.274Z,0
2017-07-18T02:59:21.572Z,0
2017-07-18T03:00:31.865Z,0
2017-07-18T03:32:58.193Z,20
2017-07-18T03:34:08.484Z,20
2017-07-18T03:35:18.754Z,20
2017-07-18T03:36:29.041Z,20
2017-07-18T03:37:39.328Z,25
2017-07-18T03:38:49.673Z,25
2017-07-18T03:39:59.335Z,25
2017-07-18T03:41:09.625Z,30
2017-07-18T03:42:19.920Z,30
2017-07-18T03:43:30.210Z,35
2017-07-18T03:44:40.254Z,35
2017-07-18T03:45:50.234Z,40
2017-07-18T03:46:59.915Z,40
2017-07-18T03:48:10.214Z,40
2017-07-18T03:49:20.209Z,40
2017-07-18T03:50:30.530Z,40
2017-07-18T03:51:40.516Z,45
2017-07-18T03:52:50.828Z,45
2017-07-18T03:54:01.156Z,45
2017-07-18T03:55:11.452Z,50
2017-07-18T03:56:21.739Z,50
2017-07-18T03:57:32.055Z,50
2017-07-18T03:58:42.038Z,55
2017-07-18T03:59:52.330Z,55
2017-07-18T04:01:02.341Z,55
2017-07-18T04:02:12.336Z,60
2017-07-18T04:03:21.994Z,60
2017-07-18T04:04:31.982Z,60
2017-07-18T04:05:42.283Z,60
2017-07-18T04:06:52.597Z,65
2017-07-18T04:08:02.626Z,65
2017-07-18T04:09:12.938Z,65
2017-07-18T04:10:23.238Z,70
2017-07-18T04:11:33.527Z,70
2017-07-18T04:12:43.501Z,70
2017-07-18T04:13:53.855Z,75
2017-07-18T04:15:04.144Z,75
2017-07-18T04:16:14.144Z,75
2017-07-18T04:17:24.435Z,75
2017-07-18T04:18:34.773Z,80
2017-07-18T04:19:45.065Z,80
2017-07-18T04:20:55.391Z,80
2017-07-18T04:22:05.676Z,80
2017-07-18T04:23:15.980Z,85
2017-07-18T04:24:25.991Z,85
2017-07-18T04:25:36.288Z,85
2017-07-18T04:26:46.290Z,90
2017-07-18T04:27:56.567Z,190
2017-07-18T04:29:06.857Z,355
2017-07-18T04:30:17.148Z,390
2017-07-18T04:31:27.434Z,385
2017-07-18T04:32:37.730Z,375
2017-07-18T04:33:48.020Z,390
2017-07-18T04:34:58.001Z,400
2017-07-18T04:36:07.991Z,400
2017-07-18T04:37:18.292Z,395
2017-07-18T04:38:28.578Z,420
2017-07-18T04:39:38.860Z,435
2017-07-18T04:40:49.165Z,430
2017-07-18T04:41:59.147Z,440
2017-07-18T04:43:09.187Z,460
2017-07-18T04:44:19.492Z,445
2017-07-18T04:45:29.803Z,455
2017-07-18T04:46:40.086Z,480
2017-07-18T04:47:50.373Z,480
2017-07-18T04:49:00.724Z,465
2017-07-18T04:50:11.060Z,450
2017-07-18T04:51:21.351Z,460
2017-07-18T04:52:31.639Z,465
2017-07-18T04:53:41.919Z,495
2017-07-18T04:54:52.212Z,490
2017-07-18T04:56:02.503Z,495
2017-07-18T04:57:12.478Z,495
2017-07-18T04:58:22.821Z,495
2017-07-18T04:59:32.509Z,505
2017-07-18T05:00:42.515Z,485
2017-07-18T05:01:52.812Z,490
2017-07-18T05:03:03.113Z,485
2017-07-18T05:04:13.110Z,470
2017-07-18T05:05:23.406Z,495
2017-07-18T05:06:33.451Z,500
2017-07-18T05:07:43.442Z,490
2017-07-18T05:08:53.441Z,475
2017-07-18T05:10:03.436Z,465
2017-07-18T05:11:13.419Z,470
2017-07-18T05:12:23.787Z,470
2017-07-18T05:13:34.099Z,470
2017-07-18T05:14:44.424Z,470
2017-07-18T05:15:54.772Z,490
2017-07-18T05:17:05.098Z,500
2017-07-18T05:18:15.686Z,490
2017-07-18T05:19:25.969Z,480
2017-07-18T05:20:36.296Z,475
2017-07-18T05:21:46.594Z,470
2017-07-18T05:22:56.885Z,460
2017-07-18T05:24:07.182Z,465
2017-07-18T05:25:17.188Z,460
2017-07-18T05:26:27.176Z,450
2017-07-18T05:27:37.468Z,440
2017-07-18T05:28:47.789Z,450
2017-07-18T05:29:57.793Z,455
2017-07-18T05:31:08.099Z,445
2017-07-18T05:32:18.405Z,435
2017-07-18T05:33:28.702Z,435
2017-07-18T05:34:38.373Z,430
2017-07-18T05:35:47.734Z,415
2017-07-18T05:36:57.729Z,395
2017-07-18T05:38:07.417Z,385
2017-07-18T05:39:17.730Z,390
2017-07-18T05:40:28.028Z,385
2017-07-18T05:41:38.378Z,390
2017-07-18T05:42:48.359Z,395
2017-07-18T05:43:58.347Z,390
2017-07-18T05:45:08.334Z,380
2017-07-18T05:46:18.677Z,375
2017-07-18T05:47:28.968Z,370
2017-07-18T05:48:39.279Z,370
2017-07-18T05:49:49.563Z,365
2017-07-18T05:50:59.866Z,365
2017-07-18T05:52:10.180Z,365
2017-07-18T05:53:20.629Z,360
2017-07-18T05:54:30.703Z,360
2017-07-18T05:55:40.699Z,360
2017-07-18T05:56:50.679Z,360
2017-07-18T05:58:00.675Z,360
2017-07-18T05:59:10.965Z,355
2017-07-18T06:00:21.266Z,355
2017-07-18T06:01:31.278Z,360
2017-07-18T06:02:41.584Z,360
2017-07-18T06:03:51.886Z,360
2017-07-18T06:05:02.188Z,360
2017-07-18T06:06:12.505Z,360
2017-07-18T06:07:22.799Z,360
2017-07-18T06:08:32.814Z,370
2017-07-18T06:09:43.109Z,370
2017-07-18T06:10:53.426Z,365
2017-07-18T06:12:03.713Z,370
2017-07-18T06:13:13.716Z,375
2017-07-18T06:14:24.038Z,375
2017-07-18T06:15:34.343Z,375
2017-07-18T06:16:44.643Z,375
2017-07-18T06:17:54.643Z,370
2017-07-18T06:19:04.949Z,355
2017-07-18T06:20:14.975Z,320
2017-07-18T06:21:24.673Z,235
2017-07-18T06:22:34.977Z,170
2017-07-18T06:23:45.260Z,165
2017-07-18T06:24:55.574Z,170
2017-07-18T06:26:05.865Z,175
2017-07-18T06:27:16.172Z,180
2017-07-18T06:28:25.915Z,175
2017-07-18T06:29:36.256Z,175
2017-07-18T06:30:46.548Z,180
2017-07-18T06:31:56.537Z,200
2017-07-18T06:33:06.846Z,245
2017-07-18T06:34:16.848Z,270
2017-07-18T06:35:27.136Z,275
2017-07-18T06:36:37.108Z,270
2017-07-18T06:37:47.394Z,275
2017-07-18T06:38:57.378Z,270
2017-07-18T06:40:07.736Z,265
2017-07-18T06:41:18.054Z,265
2017-07-18T06:42:28.345Z,260
2017-07-18T06:43:38.642Z,255
2017-07-18T06:44:48.946Z,260
2017-07-18T06:45:58.630Z,255
2017-07-18T06:47:08.935Z,255
2017-07-18T06:48:18.955Z,250
2017-07-18T06:49:29.247Z,245
2017-07-18T06:50:39.577Z,240
2017-07-18T06:51:49.624Z,245
2017-07-18T06:52:59.925Z,240
2017-07-18T06:54:10.219Z,235
2017-07-18T06:55:20.538Z,230
2017-07-18T06:56:30.843Z,225
2017-07-18T06:57:41.168Z,225
2017-07-18T06:58:51.459Z,225
2017-07-18T07:00:01.753Z,215
2017-07-18T07:01:12.069Z,210
2017-07-18T07:02:22.375Z,205
2017-07-18T07:03:32.671Z,205
2017-07-18T07:04:42.964Z,205
2017-07-18T07:05:52.945Z,200
2017-07-18T07:07:03.244Z,195
2017-07-18T07:08:13.532Z,190
2017-07-18T07:09:23.830Z,190
2017-07-18T07:10:34.158Z,185
2017-07-18T07:11:44.450Z,175
2017-07-18T07:12:54.741Z,170
2017-07-18T07:14:05.056Z,165
2017-07-18T07:15:15.095Z,165
2017-07-18T07:16:24.780Z,165
2017-07-18T07:17:34.770Z,165
2017-07-18T07:18:45.055Z,165
2017-07-18T07:19:55.041Z,170
2017-07-18T07:21:05.381Z,170
2017-07-18T07:22:15.687Z,170
2017-07-18T07:23:25.706Z,170
2017-07-18T07:24:36.012Z,170
2017-07-18T07:25:46.314Z,170
2017-07-18T07:26:56.632Z,170
2017-07-18T07:28:06.930Z,170
2017-07-18T07:29:16.909Z,170
2017-07-18T07:30:27.198Z,170
2017-07-18T07:31:37.514Z,170
2017-07-18T07:32:47.807Z,175
2017-07-18T07:33:58.086Z,175
2017-07-18T07:35:08.401Z,175
2017-07-18T07:36:18.100Z,175
2017-07-18T07:37:28.406Z,175
2017-07-18T07:38:38.778Z,175
2017-07-18T07:39:48.756Z,175
2017-07-18T07:40:59.052Z,175
2017-07-18T07:42:09.346Z,175
2017-07-18T07:43:19.338Z,175
2017-07-18T07:44:29.386Z,175
2017-07-18T07:45:39.679Z,175
2017-07-18T07:46:49.986Z,175
2017-07-18T07:48:00.279Z,180
2017-07-18T07:49:10.559Z,180
2017-07-18T07:50:20.860Z,180
2017-07-18T07:51:31.149Z,180
2017-07-18T07:52:41.433Z,180
2017-07-18T07:53:51.717Z,180
2017-07-18T07:55:02.039Z,180
2017-07-18T07:56:12.338Z,185
2017-07-18T07:57:22.324Z,180
2017-07-18T07:58:32.614Z,180
2017-07-18T07:59:42.609Z,180
2017-07-18T08:00:52.896Z,180
2017-07-18T08:02:03.238Z,185
2017-07-18T08:03:13.532Z,190
2017-07-18T08:04:23.844Z,190
2017-07-18T08:05:34.142Z,185
2017-07-18T08:06:44.415Z,185
2017-07-18T08:07:54.459Z,185
2017-07-18T08:09:04.440Z,185
2017-07-18T08:10:14.752Z,185
2017-07-18T08:11:24.759Z,185
2017-07-18T08:12:35.062Z,185
2017-07-18T08:13:45.356Z,185
2017-07-18T08:14:55.638Z,185
2017-07-18T08:16:05.924Z,185
2017-07-18T08:17:15.920Z,185
2017-07-18T08:18:26.209Z,185
2017-07-18T08:19:36.638Z,180
2017-07-18T08:20:46.929Z,185
2017-07-18T08:21:56.923Z,185
2017-07-18T08:23:06.931Z,185
2017-07-18T08:24:17.245Z,185
2017-07-18T08:25:27.531Z,185
2017-07-18T08:26:37.818Z,185
2017-07-18T08:27:48.113Z,185
2017-07-18T08:28:58.404Z,185
2017-07-18T08:30:08.692Z,185
2017-07-18T08:31:22.302Z,185
2017-07-18T08:32:32.645Z,185
2017-07-18T08:33:42.928Z,185
2017-07-18T08:34:52.931Z,185
2017-07-18T08:36:03.235Z,190
2017-07-18T08:37:13.758Z,190
2017-07-18T08:38:24.062Z,190
2017-07-18T08:39:34.347Z,190
2017-07-18T08:40:44.634Z,190
2017-07-18T08:41:54.977Z,190
2017-07-18T08:43:05.262Z,190
2017-07-18T08:44:15.248Z,190
2017-07-18T08:45:25.540Z,195
2017-07-18T08:46:35.824Z,195
2017-07-18T08:47:46.124Z,195
2017-07-18T08:48:56.420Z,195
2017-07-18T08:50:06.412Z,195
2017-07-18T08:51:16.705Z,195
2017-07-18T08:52:26.996Z,195
2017-07-18T08:53:37.033Z,195
2017-07-18T08:54:46.710Z,195
2017-07-18T08:55:56.691Z,195
2017-07-18T08:57:07.004Z,195
2017-07-18T08:58:17.302Z,195
2017-07-18T08:59:27.639Z,195
2017-07-18T09:00:37.948Z,195
2017-07-18T09:01:47.943Z,195
2017-07-18T09:02:58.235Z,195
2017-07-18T09:04:08.545Z,195
2017-07-18T09:05:18.885Z,195
2017-07-18T09:06:29.173Z,195
2017-07-18T09:07:39.166Z,195
2017-07-18T09:08:49.457Z,195
2017-07-18T09:09:59.447Z,200
2017-07-18T09:11:09.799Z,195
2017-07-18T09:12:20.106Z,200
2017-07-18T09:13:30.385Z,200
2017-07-18T09:14:40.667Z,200
2017-07-18T09:15:50.646Z,200
2017-07-18T09:17:00.678Z,200
2017-07-18T09:18:10.976Z,200
2017-07-18T09:19:20.342Z,200
2017-07-18T09:20:30.643Z,200
2017-07-18T09:21:40.624Z,200
2017-07-18T09:22:50.942Z,200
2017-07-18T09:24:01.254Z,200
2017-07-18T09:25:11.242Z,205
2017-07-18T09:26:21.232Z,205
2017-07-18T09:27:31.244Z,205
2017-07-18T09:28:41.542Z,205
2017-07-18T09:29:51.841Z,210
2017-07-18T09:31:02.148Z,205
2017-07-18T09:32:12.432Z,205
2017-07-18T09:33:22.413Z,205
2017-07-18T09:34:32.452Z,210
2017-07-18T09:35:42.742Z,210
2017-07-18T09:36:53.024Z,210
2017-07-18T09:38:03.007Z,205
2017-07-18T09:39:13.292Z,205
2017-07-18T09:40:23.280Z,210
2017-07-18T09:41:33.278Z,205
2017-07-18T09:42:43.567Z,210
2017-07-18T09:43:53.879Z,190
2017-07-18T09:45:04.167Z,190
2017-07-18T09:46:14.503Z,205
2017-07-18T09:47:24.789Z,205
2017-07-18T09:48:34.767Z,205
2017-07-18T09:49:45.038Z,185
2017-07-18T09:50:55.335Z,210
2017-07-18T09:52:05.648Z,205
2017-07-18T09:53:16.023Z,215
2017-07-18T09:54:26.113Z,225
2017-07-18T09:55:36.417Z,225
2017-07-18T09:56:46.424Z,245
2017-07-18T09:57:56.790Z,240
2017-07-18T09:59:07.119Z,245
2017-07-18T10:00:17.420Z,235
2017-07-18T10:01:27.731Z,230
2017-07-18T10:02:38.037Z,235
2017-07-18T10:03:48.325Z,215
2017-07-18T10:04:58.631Z,250
2017-07-18T10:06:08.973Z,250
2017-07-18T10:07:18.973Z,260
2017-07-18T10:08:28.954Z,255
2017-07-18T10:09:38.988Z,265
2017-07-18T10:10:48.985Z,255
2017-07-18T10:11:58.995Z,265
2017-07-18T10:13:09.302Z,230
2017-07-18T10:14:19.294Z,220
2017-07-18T10:15:29.647Z,225
2017-07-18T10:16:39.934Z,260
2017-07-18T10:17:49.940Z,255
2017-07-18T10:18:59.928Z,250
2017-07-18T10:20:09.602Z,250
2017-07-18T10:21:19.365Z,245
2017-07-18T10:22:29.690Z,240
2017-07-18T10:23:39.989Z,240
2017-07-18T10:24:50.306Z,240
2017-07-18T10:26:00.301Z,235
2017-07-18T10:27:10.608Z,230
2017-07-18T10:28:20.913Z,230
2017-07-18T10:29:31.234Z,230
2017-07-18T10:30:41.262Z,230
2017-07-18T10:31:51.565Z,230
2017-07-18T10:33:01.609Z,220
2017-07-18T10:34:11.909Z,220
2017-07-18T10:35:21.894Z,220
2017-07-18T10:36:32.219Z,220
2017-07-18T10:37:42.511Z,220
2017-07-18T10:38:52.803Z,220
2017-07-18T10:40:03.093Z,220
2017-07-18T10:41:13.396Z,220
2017-07-18T10:42:23.719Z,220
2017-07-18T10:43:34.034Z,225
2017-07-18T10:44:44.425Z,220
2017-07-18T10:45:54.729Z,220
2017-07-18T10:47:05.034Z,220
2017-07-18T10:48:15.332Z,220
2017-07-18T10:49:25.344Z,225
2017-07-18T10:50:35.871Z,225
2017-07-18T10:51:46.170Z,225
2017-07-18T10:52:56.239Z,225
2017-07-18T10:54:06.236Z,225
2017-07-18T10:55:16.606Z,225
2017-07-18T10:56:26.906Z,225
2017-07-18T10:57:36.923Z,225
2017-07-18T10:58:47.222Z,225
2017-07-18T10:59:57.543Z,225
2017-07-18T11:01:07.536Z,230
2017-07-18T11:02:17.870Z,225
2017-07-18T11:03:27.882Z,225
2017-07-18T11:04:38.178Z,230
2017-07-18T11:05:48.161Z,225
2017-07-18T11:06:58.452Z,225
2017-07-18T11:08:08.751Z,225
2017-07-18T11:09:19.044Z,225
2017-07-18T11:10:28.729Z,230
2017-07-18T11:11:38.742Z,230
2017-07-18T11:12:48.438Z,230
2017-07-18T11:13:58.792Z,230
2017-07-18T11:15:09.104Z,230
2017-07-18T11:16:19.098Z,230
2017-07-18T11:17:29.390Z,235
2017-07-18T11:18:39.694Z,235
2017-07-18T11:19:49.712Z,240
2017-07-18T11:21:00.006Z,235
2017-07-18T11:22:10.016Z,235
2017-07-18T11:23:20.009Z,235
2017-07-18T11:24:30.002Z,240
2017-07-18T11:25:40.340Z,240
2017-07-18T11:26:50.647Z,240
2017-07-18T11:28:00.954Z,240
2017-07-18T11:29:11.279Z,240
2017-07-18T11:30:21.278Z,235
2017-07-18T11:31:31.269Z,220
2017-07-18T11:32:41.560Z,200
2017-07-18T11:33:51.875Z,205
2017-07-18T11:35:02.163Z,230
2017-07-18T11:36:11.532Z,240
2017-07-18T11:37:21.837Z,245
2017-07-18T11:38:32.158Z,250
2017-07-18T11:39:42.466Z,230
2017-07-18T11:40:52.462Z,170
2017-07-18T11:42:02.803Z,170
2017-07-18T11:43:13.125Z,155
2017-07-18T11:44:23.432Z,155
2017-07-18T11:45:33.748Z,155
2017-07-18T11:46:44.047Z,155
2017-07-18T11:47:54.032Z,155
2017-07-18T11:49:04.338Z,155
2017-07-18T11:50:14.630Z,160
2017-07-18T11:51:24.935Z,175
2017-07-18T11:52:35.231Z,190
2017-07-18T11:53:45.243Z,165
2017-07-18T11:54:55.543Z,160
2017-07-18T11:56:05.536Z,165
2017-07-18T11:57:15.840Z,170
2017-07-18T11:58:26.134Z,185
2017-07-18T11:59:36.134Z,210
2017-07-18T12:00:46.484Z,200
2017-07-18T12:01:56.782Z,200
2017-07-18T12:03:06.781Z,270
2017-07-18T12:04:17.088Z,310
2017-07-18T12:05:27.407Z,300
2017-07-18T12:06:37.759Z,310
2017-07-18T12:07:47.468Z,310
2017-07-18T12:08:57.767Z,250
2017-07-18T12:10:07.776Z,220
2017-07-18T12:11:18.087Z,285
2017-07-18T12:12:28.394Z,275
2017-07-18T12:13:38.715Z,255
2017-07-18T12:14:48.711Z,235
2017-07-18T12:15:59.016Z,270
2017-07-18T12:17:09.331Z,275
2017-07-18T12:18:19.681Z,280
2017-07-18T12:19:29.980Z,275
2017-07-18T12:20:40.291Z,270
2017-07-18T12:21:50.602Z,270
2017-07-18T12:23:00.615Z,265
2017-07-18T12:24:10.640Z,265
2017-07-18T12:25:20.972Z,270
2017-07-18T12:26:31.320Z,255
2017-07-18T12:27:41.302Z,225
2017-07-18T12:28:51.644Z,175
2017-07-18T12:30:01.617Z,200
2017-07-18T12:31:11.921Z,190
2017-07-18T12:32:22.251Z,235
2017-07-18T12:33:31.953Z,300
2017-07-18T12:34:42.279Z,300
2017-07-18T12:35:52.600Z,295
2017-07-18T12:37:02.887Z,295
2017-07-18T12:38:13.469Z,300
2017-07-18T12:39:23.811Z,300
2017-07-18T12:40:34.115Z,255
2017-07-18T12:41:44.470Z,250
2017-07-18T12:42:54.789Z,235
2017-07-18T12:44:05.107Z,220
2017-07-18T12:45:15.116Z,255
2017-07-18T12:46:25.407Z,265
2017-07-18T12:47:35.764Z,255
2017-07-18T12:48:46.056Z,300
2017-07-18T12:49:56.035Z,310
2017-07-18T12:51:06.335Z,310
2017-07-18T12:52:16.652Z,300
2017-07-18T12:53:27.006Z,290
2017-07-18T12:54:37.005Z,290
2017-07-18T12:55:46.999Z,290
2017-07-18T12:56:57.307Z,265
2017-07-18T12:58:07.605Z,265
2017-07-18T12:59:17.976Z,230
2017-07-18T13:00:28.273Z,180
2017-07-18T13:01:37.976Z,180
2017-07-18T13:02:48.299Z,170
2017-07-18T13:03:57.979Z,165
2017-07-18T13:05:08.371Z,160
2017-07-18T13:06:18.689Z,155
2017-07-18T13:07:29.000Z,150
2017-07-18T13:08:39.294Z,210
2017-07-18T13:09:49.602Z,245
2017-07-18T13:10:59.972Z,240
2017-07-18T13:12:10.281Z,240
2017-07-18T13:13:20.604Z,240
2017-07-18T13:14:30.905Z,245
2017-07-18T13:15:40.596Z,240
2017-07-18T13:16:51.095Z,235
2017-07-18T13:18:01.425Z,220
2017-07-18T13:19:11.414Z,230
2017-07-18T13:20:21.735Z,145
2017-07-18T13:21:31.752Z,230
2017-07-18T13:22:42.061Z,225
2017-07-18T13:23:52.372Z,225
2017-07-18T13:25:02.704Z,225
2017-07-18T13:26:13.013Z,225
2017-07-18T13:27:23.028Z,225
2017-07-18T13:28:33.341Z,225
2017-07-18T13:29:43.653Z,225
2017-07-18T13:30:53.680Z,225
2017-07-18T13:32:03.975Z,225
2017-07-18T13:33:14.290Z,140
2017-07-18T13:34:24.794Z,130
2017-07-18T13:35:35.104Z,120
2017-07-18T13:36:45.403Z,125
2017-07-18T13:37:55.698Z,195
2017-07-18T13:39:06.009Z,220
2017-07-18T13:40:16.004Z,220
2017-07-18T13:41:25.976Z,220
2017-07-18T13:42:35.969Z,220
2017-07-18T13:43:46.288Z,220
2017-07-18T13:44:56.599Z,215
2017-07-18T13:46:07.023Z,220
2017-07-18T13:47:17.336Z,220
2017-07-18T13:48:27.644Z,225
2017-07-18T13:49:37.949Z,225
2017-07-18T13:50:48.257Z,230
2017-07-18T13:51:58.273Z,230
2017-07-18T13:53:08.290Z,230
2017-07-18T13:54:18.597Z,230
2017-07-18T13:55:28.587Z,230
2017-07-18T13:56:38.601Z,230
2017-07-18T13:57:48.600Z,230
2017-07-18T13:58:58.904Z,230
2017-07-18T14:00:09.215Z,225
2017-07-18T14:01:19.207Z,220
2017-07-18T14:02:29.515Z,220
2017-07-18T14:03:39.820Z,220
2017-07-18T14:04:50.132Z,220
2017-07-18T14:06:00.441Z,220
2017-07-18T14:07:10.728Z,215
2017-07-18T14:08:21.048Z,210
2017-07-18T14:09:31.370Z,210
2017-07-18T14:10:41.364Z,210
2017-07-18T14:11:51.689Z,210
2017-07-18T14:13:02.002Z,210
2017-07-18T14:14:12.302Z,215
2017-07-18T14:15:22.348Z,210
2017-07-18T14:16:32.657Z,215
2017-07-18T14:17:42.951Z,205
2017-07-18T14:18:53.251Z,205
2017-07-18T14:20:03.578Z,205
2017-07-18T14:21:13.915Z,205
2017-07-18T14:22:24.226Z,205
2017-07-18T14:23:34.567Z,205
2017-07-18T14:24:44.569Z,205
2017-07-18T14:25:54.873Z,155
2017-07-18T14:27:05.257Z,180
2017-07-18T14:28:15.553Z,190
2017-07-18T14:29:25.849Z,200
2017-07-18T14:30:35.858Z,195
2017-07-18T14:31:45.837Z,200
2017-07-18T14:32:56.141Z,200
2017-07-18T14:34:06.458Z,200
2017-07-18T14:35:16.832Z,205
2017-07-18T14:36:26.517Z,200
2017-07-18T14:37:36.817Z,200
2017-07-18T14:38:47.118Z,200
2017-07-18T14:39:57.130Z,200
2017-07-18T14:41:07.188Z,195
2017-07-18T14:42:17.258Z,190
2017-07-18T14:43:27.312Z,190
2017-07-18T14:44:37.419Z,185
2017-07-18T14:45:47.790Z,185
2017-07-18T14:46:57.565Z,185
2017-07-18T14:48:07.966Z,185
2017-07-18T14:49:18.390Z,185
2017-07-18T14:50:28.762Z,180
2017-07-18T14:51:38.808Z,180
2017-07-18T14:52:48.870Z,180
2017-07-18T14:53:58.947Z,180
2017-07-18T14:55:09.323Z,180
2017-07-18T14:56:19.734Z,180
2017-07-18T14:57:30.101Z,180
2017-07-18T14:58:40.481Z,175
2017-07-18T14:59:50.873Z,175
2017-07-18T15:01:01.235Z,175
2017-07-18T15:02:11.672Z,175
2017-07-18T15:03:21.737Z,175
2017-07-18T15:04:32.106Z,175
2017-07-18T15:05:42.466Z,175
2017-07-18T15:06:52.189Z,180
2017-07-18T15:08:02.279Z,170
2017-07-18T15:09:12.332Z,170
2017-07-18T15:10:22.696Z,170
2017-07-18T15:11:32.762Z,170
2017-07-18T15:12:43.148Z,175
2017-07-18T15:13:53.523Z,170
2017-07-18T15:15:03.897Z,170
2017-07-18T15:16:14.271Z,165
2017-07-18T15:17:24.628Z,165
2017-07-18T15:18:35.011Z,165
2017-07-18T15:19:45.063Z,165
2017-07-18T15:20:55.427Z,160
2017-07-18T15:22:05.792Z,160
2017-07-18T15:23:16.394Z,160
2017-07-18T15:24:26.768Z,160
2017-07-18T15:25:36.893Z,160
2017-07-18T15:26:46.959Z,160
2017-07-18T15:27:57.320Z,160
2017-07-18T15:29:07.704Z,160
2017-07-18T15:30:18.065Z,160
2017-07-18T15:31:28.440Z,160
2017-07-18T15:32:38.838Z,160
2017-07-18T15:33:49.214Z,160
2017-07-18T15:34:59.589Z,155
2017-07-18T15:36:09.967Z,160
2017-07-18T15:37:20.385Z,155
2017-07-18T15:38:30.769Z,155
2017-07-18T15:39:41.149Z,155
2017-07-18T15:40:51.540Z,155
2017-07-18T15:42:01.902Z,155
2017-07-18T15:43:11.941Z,155
2017-07-18T15:44:22.301Z,155
2017-07-18T15:45:32.675Z,155
2017-07-18T15:46:43.058Z,155
2017-07-18T15:47:53.443Z,150
2017-07-18T15:49:03.854Z,150
2017-07-18T15:50:13.590Z,150
2017-07-18T15:51:23.657Z,150
2017-07-18T15:52:34.070Z,150
2017-07-18T15:53:44.430Z,150
2017-07-18T15:54:54.806Z,150
2017-07-18T15:56:05.197Z,150
2017-07-18T15:57:15.565Z,145
2017-07-18T15:58:25.932Z,145
2017-07-18T15:59:36.309Z,145
2017-07-18T16:00:46.743Z,145
2017-07-18T16:01:56.503Z,145
2017-07-18T16:03:06.554Z,140
2017-07-18T16:04:16.286Z,140
2017-07-18T16:05:26.666Z,140
2017-07-18T16:06:36.790Z,140
2017-07-18T16:07:46.846Z,140
2017-07-18T16:08:56.906Z,135
2017-07-18T16:10:07.292Z,135
2017-07-18T16:11:17.372Z,135
2017-07-18T16:12:27.815Z,135
2017-07-18T16:13:38.191Z,135
2017-07-18T16:14:48.566Z,135
2017-07-18T16:15:58.660Z,130
2017-07-18T16:17:08.701Z,130
2017-07-18T16:18:18.805Z,130
2017-07-18T16:19:28.273Z,130
2017-07-18T16:20:38.670Z,125
2017-07-18T16:21:49.031Z,125
2017-07-18T16:22:59.391Z,125
2017-07-18T16:24:09.441Z,130
2017-07-18T16:25:19.816Z,125
2017-07-18T16:26:30.209Z,125
2017-07-18T16:27:40.619Z,125
2017-07-18T16:28:50.680Z,125
2017-07-18T16:30:01.061Z,120
2017-07-18T16:31:11.121Z,120
2017-07-18T16:32:21.488Z,120
2017-07-18T16:33:31.531Z,120
2017-07-18T16:34:41.908Z,115
2017-07-18T16:35:52.347Z,115
2017-07-18T16:37:02.714Z,115
2017-07-18T16:38:13.093Z,115
2017-07-18T16:39:23.146Z,115
2017-07-18T16:40:33.504Z,110
2017-07-18T16:41:43.646Z,110
2017-07-18T16:42:54.006Z,110
2017-07-18T16:44:04.067Z,110
2017-07-18T16:45:13.818Z,110
2017-07-18T16:46:23.880Z,110
2017-07-18T16:47:33.934Z,110
2017-07-18T16:48:43.999Z,105
2017-07-18T16:49:54.371Z,105
2017-07-18T16:51:04.435Z,105
2017-07-18T16:52:14.510Z,105